sensor_id;sensor_type;location;lat;lon;timestamp;pressure;altitude;pressure_sealevel;temperature;humidity
10720;BME280;5411;58.386;15.560;2023-10-08T00:01:18;100429.34;;;5.19;66.94
10720;BME280;5411;58.386;15.560;2023-10-08T00:03:49;100434.28;;;5.22;66.72
10720;BME280;5411;58.386;15.560;2023-10-08T00:06:20;100449.72;;;5.18;67.78
10720;BME280;5411;58.386;15.560;2023-10-08T00:08:51;100450.72;;;5.17;66.96
10720;BME280;5411;58.386;15.560;2023-10-08T00:11:27;100454.19;;;5.18;67.62
10720;BME280;5411;58.386;15.560;2023-10-08T00:13:58;100449.88;;;5.17;67.56
10720;BME280;5411;58.386;15.560;2023-10-08T00:16:37;100461.81;;;5.13;67.83
10720;BME280;5411;58.386;15.560;2023-10-08T00:19:07;100468.94;;;5.12;67.70
10720;BME280;5411;58.386;15.560;2023-10-08T00:21:39;100473.56;;;5.10;68.04
10720;BME280;5411;58.386;15.560;2023-10-08T00:24:11;100469.59;;;5.06;68.16
10720;BME280;5411;58.386;15.560;2023-10-08T00:26:40;100471.59;;;5.04;68.49
10720;BME280;5411;58.386;15.560;2023-10-08T00:29:18;100483.34;;;5.01;68.38
10720;BME280;5411;58.386;15.560;2023-10-08T00:31:49;100481.53;;;5.02;68.25
10720;BME280;5411;58.386;15.560;2023-10-08T00:34:19;100481.69;;;5.00;68.64
10720;BME280;5411;58.386;15.560;2023-10-08T00:36:49;100481.34;;;4.95;69.01
10720;BME280;5411;58.386;15.560;2023-10-08T00:39:18;100469.06;;;4.94;69.55
10720;BME280;5411;58.386;15.560;2023-10-08T00:41:52;100470.06;;;4.93;69.32
10720;BME280;5411;58.386;15.560;2023-10-08T00:44:28;100471.25;;;4.91;69.67
10720;BME280;5411;58.386;15.560;2023-10-08T00:47:05;100472.41;;;4.88;69.38
10720;BME280;5411;58.386;15.560;2023-10-08T00:49:40;100476.34;;;4.84;69.65
10720;BME280;5411;58.386;15.560;2023-10-08T00:52:31;100484.47;;;4.83;70.77
10720;BME280;5411;58.386;15.560;2023-10-08T00:55:09;100470.53;;;4.81;70.43
10720;BME280;5411;58.386;15.560;2023-10-08T00:57:47;100479.69;;;4.78;70.63
10720;BME280;5411;58.386;15.560;2023-10-08T01:00:22;100486.28;;;4.74;71.35
10720;BME280;5411;58.386;15.560;2023-10-08T01:02:59;100495.38;;;4.72;70.93
10720;BME280;5411;58.386;15.560;2023-10-08T01:05:29;100492.38;;;4.66;70.83
10720;BME280;5411;58.386;15.560;2023-10-08T01:08:11;100494.38;;;4.64;71.37
10720;BME280;5411;58.386;15.560;2023-10-08T01:10:48;100491.22;;;4.61;71.72
10720;BME280;5411;58.386;15.560;2023-10-08T01:13:25;100495.69;;;4.60;71.96
10720;BME280;5411;58.386;15.560;2023-10-08T01:16:04;100499.47;;;4.58;72.04
10720;BME280;5411;58.386;15.560;2023-10-08T01:18:35;100498.81;;;4.56;72.20
10720;BME280;5411;58.386;15.560;2023-10-08T01:21:10;100501.59;;;4.54;72.05
10720;BME280;5411;58.386;15.560;2023-10-08T01:24:00;100500.78;;;4.54;71.96
10720;BME280;5411;58.386;15.560;2023-10-08T01:26:33;100504.41;;;4.53;72.43
10720;BME280;5411;58.386;15.560;2023-10-08T01:29:08;100503.78;;;4.51;72.50
10720;BME280;5411;58.386;15.560;2023-10-08T01:31:46;100505.38;;;4.44;73.49
10720;BME280;5411;58.386;15.560;2023-10-08T01:34:25;100514.16;;;4.44;73.82
10720;BME280;5411;58.386;15.560;2023-10-08T01:37:02;100513.34;;;4.44;74.53
10720;BME280;5411;58.386;15.560;2023-10-08T01:39:33;100510.00;;;4.42;74.47
10720;BME280;5411;58.386;15.560;2023-10-08T01:42:02;100524.91;;;4.43;74.03
10720;BME280;5411;58.386;15.560;2023-10-08T01:44:37;100528.69;;;4.40;74.36
10720;BME280;5411;58.386;15.560;2023-10-08T01:47:05;100526.06;;;4.40;74.08
10720;BME280;5411;58.386;15.560;2023-10-08T01:49:38;100524.41;;;4.39;73.52
10720;BME280;5411;58.386;15.560;2023-10-08T01:52:09;100519.94;;;4.40;74.35
10720;BME280;5411;58.386;15.560;2023-10-08T01:54:46;100529.72;;;4.39;74.27
10720;BME280;5411;58.386;15.560;2023-10-08T01:57:15;100534.84;;;4.41;74.32
10720;BME280;5411;58.386;15.560;2023-10-08T01:59:44;100536.16;;;4.37;74.90
10720;BME280;5411;58.386;15.560;2023-10-08T02:02:19;100538.47;;;4.40;74.72
10720;BME280;5411;58.386;15.560;2023-10-08T02:04:50;100529.19;;;4.36;75.24
10720;BME280;5411;58.386;15.560;2023-10-08T02:07:19;100543.13;;;4.38;74.43
10720;BME280;5411;58.386;15.560;2023-10-08T02:09:52;100537.66;;;4.39;74.55
10720;BME280;5411;58.386;15.560;2023-10-08T02:12:21;100537.00;;;4.37;74.84
10720;BME280;5411;58.386;15.560;2023-10-08T02:14:52;100548.41;;;4.38;75.12
10720;BME280;5411;58.386;15.560;2023-10-08T02:17:21;100547.75;;;4.36;75.25
10720;BME280;5411;58.386;15.560;2023-10-08T02:19:49;100554.84;;;4.35;75.09
10720;BME280;5411;58.386;15.560;2023-10-08T02:22:18;100547.91;;;4.34;75.64
10720;BME280;5411;58.386;15.560;2023-10-08T02:24:46;100558.63;;;4.33;75.77
10720;BME280;5411;58.386;15.560;2023-10-08T02:27:21;100556.16;;;4.31;77.79
10720;BME280;5411;58.386;15.560;2023-10-08T02:29:52;100562.59;;;4.28;76.61
10720;BME280;5411;58.386;15.560;2023-10-08T02:32:23;100559.94;;;4.28;76.72
10720;BME280;5411;58.386;15.560;2023-10-08T02:34:54;100560.44;;;4.24;76.31
10720;BME280;5411;58.386;15.560;2023-10-08T02:37:24;100562.91;;;4.25;76.67
10720;BME280;5411;58.386;15.560;2023-10-08T02:39:53;100557.78;;;4.24;76.55
10720;BME280;5411;58.386;15.560;2023-10-08T02:42:23;100559.44;;;4.25;76.33
10720;BME280;5411;58.386;15.560;2023-10-08T02:44:51;100567.53;;;4.23;76.23
10720;BME280;5411;58.386;15.560;2023-10-08T02:47:20;100560.56;;;4.22;75.83
10720;BME280;5411;58.386;15.560;2023-10-08T02:49:52;100572.00;;;4.23;76.55
10720;BME280;5411;58.386;15.560;2023-10-08T02:52:20;100571.16;;;4.22;76.45
10720;BME280;5411;58.386;15.560;2023-10-08T02:54:49;100572.16;;;4.21;76.76
10720;BME280;5411;58.386;15.560;2023-10-08T02:57:19;100570.34;;;4.22;76.55
10720;BME280;5411;58.386;15.560;2023-10-08T02:59:50;100580.09;;;4.21;76.74
10720;BME280;5411;58.386;15.560;2023-10-08T03:02:21;100590.84;;;4.20;76.95
10720;BME280;5411;58.386;15.560;2023-10-08T03:04:52;100590.31;;;4.16;77.14
10720;BME280;5411;58.386;15.560;2023-10-08T03:07:24;100598.78;;;4.20;77.50
10720;BME280;5411;58.386;15.560;2023-10-08T03:09:59;100592.97;;;4.16;77.06
10720;BME280;5411;58.386;15.560;2023-10-08T03:12:33;100600.44;;;4.21;77.42
10720;BME280;5411;58.386;15.560;2023-10-08T03:15:04;100609.75;;;4.25;76.79
10720;BME280;5411;58.386;15.560;2023-10-08T03:17:48;100598.00;;;4.27;77.21
10720;BME280;5411;58.386;15.560;2023-10-08T03:20:19;100607.75;;;4.27;76.86
10720;BME280;5411;58.386;15.560;2023-10-08T03:23:05;100607.75;;;4.27;76.93
10720;BME280;5411;58.386;15.560;2023-10-08T03:25:40;100607.75;;;4.27;76.88
10720;BME280;5411;58.386;15.560;2023-10-08T03:28:09;100599.81;;;4.27;76.59
10720;BME280;5411;58.386;15.560;2023-10-08T03:30:44;100603.63;;;4.24;76.20
10720;BME280;5411;58.386;15.560;2023-10-08T03:33:31;100609.06;;;4.23;75.95
10720;BME280;5411;58.386;15.560;2023-10-08T03:36:02;100609.91;;;4.23;76.21
10720;BME280;5411;58.386;15.560;2023-10-08T03:38:41;100610.59;;;4.25;76.25
10720;BME280;5411;58.386;15.560;2023-10-08T03:41:22;100614.66;;;4.20;76.13
10720;BME280;5411;58.386;15.560;2023-10-08T03:43:55;100624.97;;;4.23;75.75
10720;BME280;5411;58.386;15.560;2023-10-08T03:46:31;100611.72;;;4.23;75.79
10720;BME280;5411;58.386;15.560;2023-10-08T03:49:06;100610.88;;;4.22;75.00
10720;BME280;5411;58.386;15.560;2023-10-08T03:51:43;100616.03;;;4.24;74.76
10720;BME280;5411;58.386;15.560;2023-10-08T03:54:12;100618.53;;;4.25;75.39
10720;BME280;5411;58.386;15.560;2023-10-08T03:56:59;100618.34;;;4.27;75.35
10720;BME280;5411;58.386;15.560;2023-10-08T03:59:32;100627.47;;;4.24;75.39
10720;BME280;5411;58.386;15.560;2023-10-08T04:02:11;100626.63;;;4.24;75.41
10720;BME280;5411;58.386;15.560;2023-10-08T04:04:51;100620.94;;;4.19;75.56
10720;BME280;5411;58.386;15.560;2023-10-08T04:07:25;100631.38;;;4.20;75.42
10720;BME280;5411;58.386;15.560;2023-10-08T04:10:08;100645.75;;;4.18;75.31
10720;BME280;5411;58.386;15.560;2023-10-08T04:13:16;100640.09;;;4.13;75.33
10720;BME280;5411;58.386;15.560;2023-10-08T04:15:43;100643.75;;;4.12;75.71
10720;BME280;5411;58.386;15.560;2023-10-08T04:18:13;100653.66;;;4.10;76.12
10720;BME280;5411;58.386;15.560;2023-10-08T04:20:42;100650.31;;;4.08;75.97
10720;BME280;5411;58.386;15.560;2023-10-08T04:23:28;100647.69;;;4.08;76.23
10720;BME280;5411;58.386;15.560;2023-10-08T04:25:57;100648.97;;;4.04;75.86
10720;BME280;5411;58.386;15.560;2023-10-08T04:28:31;100665.53;;;4.06;75.79
10720;BME280;5411;58.386;15.560;2023-10-08T04:31:02;100666.34;;;4.06;75.94
10720;BME280;5411;58.386;15.560;2023-10-08T04:33:44;100665.53;;;4.06;75.85
10720;BME280;5411;58.386;15.560;2023-10-08T04:36:16;100680.59;;;4.05;75.81
10720;BME280;5411;58.386;15.560;2023-10-08T04:38:47;100676.41;;;4.03;76.20
10720;BME280;5411;58.386;15.560;2023-10-08T04:41:18;100690.19;;;4.06;76.53
10720;BME280;5411;58.386;15.560;2023-10-08T04:43:49;100686.03;;;4.04;76.72
10720;BME280;5411;58.386;15.560;2023-10-08T04:46:22;100696.47;;;4.05;76.41
10720;BME280;5411;58.386;15.560;2023-10-08T04:49:16;100695.47;;;4.06;76.45
10720;BME280;5411;58.386;15.560;2023-10-08T04:51:56;100683.91;;;4.07;76.05
10720;BME280;5411;58.386;15.560;2023-10-08T04:54:32;100697.97;;;4.08;75.91
10720;BME280;5411;58.386;15.560;2023-10-08T04:57:07;100702.28;;;4.09;76.25
10720;BME280;5411;58.386;15.560;2023-10-08T04:59:42;100698.81;;;4.08;76.32
10720;BME280;5411;58.386;15.560;2023-10-08T05:02:14;100706.28;;;4.13;76.36
10720;BME280;5411;58.386;15.560;2023-10-08T05:05:05;100711.75;;;4.11;76.15
10720;BME280;5411;58.386;15.560;2023-10-08T05:07:51;100710.44;;;4.15;75.70
10720;BME280;5411;58.386;15.560;2023-10-08T05:10:27;100699.00;;;4.15;75.46
10720;BME280;5411;58.386;15.560;2023-10-08T05:13:13;100710.59;;;4.14;75.02
10720;BME280;5411;58.386;15.560;2023-10-08T05:15:57;100719.06;;;4.17;74.77
10720;BME280;5411;58.386;15.560;2023-10-08T05:18:48;100727.69;;;4.19;75.49
10720;BME280;5411;58.386;15.560;2023-10-08T05:21:35;100719.59;;;4.21;75.59
10720;BME280;5411;58.386;15.560;2023-10-08T05:24:19;100724.75;;;4.22;75.26
10720;BME280;5411;58.386;15.560;2023-10-08T05:26:56;100738.13;;;4.21;75.55
10720;BME280;5411;58.386;15.560;2023-10-08T05:29:49;100750.25;;;4.23;74.74
10720;BME280;5411;58.386;15.560;2023-10-08T05:32:38;100750.25;;;4.23;74.64
10720;BME280;5411;58.386;15.560;2023-10-08T05:35:19;100749.25;;;4.24;74.28
10720;BME280;5411;58.386;15.560;2023-10-08T05:38:18;100757.72;;;4.28;74.48
10720;BME280;5411;58.386;15.560;2023-10-08T05:41:16;100754.91;;;4.29;74.39
10720;BME280;5411;58.386;15.560;2023-10-08T05:44:01;100757.28;;;4.33;74.17
10720;BME280;5411;58.386;15.560;2023-10-08T05:46:47;100769.22;;;4.37;73.94
10720;BME280;5411;58.386;15.560;2023-10-08T05:49:36;100760.97;;;4.40;74.32
10720;BME280;5411;58.386;15.560;2023-10-08T05:52:25;100763.31;;;4.43;74.12
10720;BME280;5411;58.386;15.560;2023-10-08T05:55:12;100762.03;;;4.47;73.38
10720;BME280;5411;58.386;15.560;2023-10-08T05:57:53;100766.88;;;4.51;73.70
10720;BME280;5411;58.386;15.560;2023-10-08T06:00:40;100776.16;;;4.55;73.21
10720;BME280;5411;58.386;15.560;2023-10-08T06:03:30;100782.81;;;4.59;73.94
10720;BME280;5411;58.386;15.560;2023-10-08T06:06:14;100780.84;;;4.61;73.68
10720;BME280;5411;58.386;15.560;2023-10-08T06:08:55;100787.81;;;4.62;73.29
10720;BME280;5411;58.386;15.560;2023-10-08T06:11:42;100794.31;;;4.68;72.93
10720;BME280;5411;58.386;15.560;2023-10-08T06:14:23;100800.13;;;4.72;72.95
10720;BME280;5411;58.386;15.560;2023-10-08T06:17:03;100803.16;;;4.77;72.99
10720;BME280;5411;58.386;15.560;2023-10-08T06:19:53;100808.97;;;4.80;72.90
10720;BME280;5411;58.386;15.560;2023-10-08T06:22:21;100805.03;;;4.84;73.54
10720;BME280;5411;58.386;15.560;2023-10-08T06:24:52;100807.22;;;4.89;73.20
10720;BME280;5411;58.386;15.560;2023-10-08T06:27:42;100827.81;;;4.95;73.02
10720;BME280;5411;58.386;15.560;2023-10-08T06:30:12;100838.94;;;4.98;73.01
10720;BME280;5411;58.386;15.560;2023-10-08T06:32:44;100841.00;;;5.05;71.77
10720;BME280;5411;58.386;15.560;2023-10-08T06:35:15;100840.50;;;5.09;72.40
10720;BME280;5411;58.386;15.560;2023-10-08T06:37:45;100846.47;;;5.11;72.14
10720;BME280;5411;58.386;15.560;2023-10-08T06:40:18;100843.84;;;5.11;72.01
10720;BME280;5411;58.386;15.560;2023-10-08T06:43:15;100841.06;;;5.21;71.57
10720;BME280;5411;58.386;15.560;2023-10-08T06:45:51;100850.38;;;5.25;71.64
10720;BME280;5411;58.386;15.560;2023-10-08T06:48:21;100860.38;;;5.31;70.96
10720;BME280;5411;58.386;15.560;2023-10-08T06:50:52;100853.44;;;5.38;71.66
10720;BME280;5411;58.386;15.560;2023-10-08T06:53:24;100853.31;;;5.40;72.03
10720;BME280;5411;58.386;15.560;2023-10-08T06:55:59;100869.25;;;5.48;70.31
10720;BME280;5411;58.386;15.560;2023-10-08T06:58:33;100861.19;;;5.57;69.96
10720;BME280;5411;58.386;15.560;2023-10-08T07:01:07;100873.16;;;5.61;70.91
10720;BME280;5411;58.386;15.560;2023-10-08T07:03:41;100878.81;;;5.66;69.25
10720;BME280;5411;58.386;15.560;2023-10-08T07:06:10;100872.06;;;5.72;69.18
10720;BME280;5411;58.386;15.560;2023-10-08T07:08:52;100879.22;;;5.80;68.67
10720;BME280;5411;58.386;15.560;2023-10-08T07:11:22;100876.94;;;5.85;69.24
10720;BME280;5411;58.386;15.560;2023-10-08T07:13:57;100881.31;;;5.94;68.63
10720;BME280;5411;58.386;15.560;2023-10-08T07:16:30;100890.44;;;5.99;68.71
10720;BME280;5411;58.386;15.560;2023-10-08T07:18:59;100885.66;;;6.03;69.64
10720;BME280;5411;58.386;15.560;2023-10-08T07:21:30;100899.13;;;6.10;67.89
10720;BME280;5411;58.386;15.560;2023-10-08T07:24:13;100896.81;;;6.15;69.34
10720;BME280;5411;58.386;15.560;2023-10-08T07:26:46;100888.69;;;6.16;67.19
10720;BME280;5411;58.386;15.560;2023-10-08T07:29:17;100892.69;;;6.28;67.46
10720;BME280;5411;58.386;15.560;2023-10-08T07:31:46;100896.88;;;6.31;67.29
10720;BME280;5411;58.386;15.560;2023-10-08T07:34:21;100894.88;;;6.33;67.14
10720;BME280;5411;58.386;15.560;2023-10-08T07:36:55;100895.56;;;6.35;67.01
10720;BME280;5411;58.386;15.560;2023-10-08T07:39:25;100892.59;;;6.38;66.89
10720;BME280;5411;58.386;15.560;2023-10-08T07:42:03;100903.06;;;6.48;66.67
10720;BME280;5411;58.386;15.560;2023-10-08T07:44:36;100907.53;;;6.55;66.66
10720;BME280;5411;58.386;15.560;2023-10-08T07:47:08;100902.91;;;6.57;66.10
10720;BME280;5411;58.386;15.560;2023-10-08T07:49:41;100903.59;;;6.67;65.15
10720;BME280;5411;58.386;15.560;2023-10-08T07:52:12;100902.25;;;6.71;65.56
10720;BME280;5411;58.386;15.560;2023-10-08T07:54:43;100902.25;;;6.79;65.75
10720;BME280;5411;58.386;15.560;2023-10-08T07:57:12;100904.59;;;6.83;66.07
10720;BME280;5411;58.386;15.560;2023-10-08T07:59:46;100922.88;;;6.94;65.85
10720;BME280;5411;58.386;15.560;2023-10-08T08:02:16;100911.25;;;6.95;65.68
10720;BME280;5411;58.386;15.560;2023-10-08T08:04:51;100910.75;;;6.99;64.17
10720;BME280;5411;58.386;15.560;2023-10-08T08:07:20;100913.56;;;7.06;64.05
10720;BME280;5411;58.386;15.560;2023-10-08T08:09:50;100922.91;;;7.10;63.61
10720;BME280;5411;58.386;15.560;2023-10-08T08:12:27;100924.41;;;7.12;63.67
10720;BME280;5411;58.386;15.560;2023-10-08T08:15:01;100924.75;;;7.18;63.62
10720;BME280;5411;58.386;15.560;2023-10-08T08:17:42;100931.72;;;7.27;63.75
10720;BME280;5411;58.386;15.560;2023-10-08T08:20:24;100936.56;;;7.31;63.09
10720;BME280;5411;58.386;15.560;2023-10-08T08:23:02;100943.53;;;7.40;63.72
10720;BME280;5411;58.386;15.560;2023-10-08T08:25:37;100942.84;;;7.46;63.43
10720;BME280;5411;58.386;15.560;2023-10-08T08:28:12;100931.53;;;7.53;62.86
10720;BME280;5411;58.386;15.560;2023-10-08T08:30:47;100955.16;;;7.56;62.95
10720;BME280;5411;58.386;15.560;2023-10-08T08:33:19;100953.63;;;7.61;62.60
10720;BME280;5411;58.386;15.560;2023-10-08T08:36:00;100949.31;;;7.68;61.95
10720;BME280;5411;58.386;15.560;2023-10-08T08:38:32;100958.59;;;7.72;62.36
10720;BME280;5411;58.386;15.560;2023-10-08T08:41:04;100948.31;;;7.69;61.16
10720;BME280;5411;58.386;15.560;2023-10-08T08:43:35;100950.28;;;7.75;60.72
10720;BME280;5411;58.386;15.560;2023-10-08T08:46:14;100964.75;;;7.81;61.03
10720;BME280;5411;58.386;15.560;2023-10-08T08:48:44;100974.09;;;7.85;61.29
10720;BME280;5411;58.386;15.560;2023-10-08T08:51:18;100974.56;;;7.88;61.47
10720;BME280;5411;58.386;15.560;2023-10-08T08:53:47;100977.22;;;7.88;60.34
10720;BME280;5411;58.386;15.560;2023-10-08T08:56:16;100976.56;;;7.95;61.73
10720;BME280;5411;58.386;15.560;2023-10-08T08:58:46;100980.19;;;8.02;61.40
10720;BME280;5411;58.386;15.560;2023-10-08T09:01:19;100978.97;;;8.12;61.51
10720;BME280;5411;58.386;15.560;2023-10-08T09:03:58;100980.63;;;8.21;60.05
10720;BME280;5411;58.386;15.560;2023-10-08T09:06:28;100982.13;;;8.24;60.33
10720;BME280;5411;58.386;15.560;2023-10-08T09:08:59;100977.44;;;8.26;60.63
10720;BME280;5411;58.386;15.560;2023-10-08T09:11:41;100982.75;;;8.26;60.37
10720;BME280;5411;58.386;15.560;2023-10-08T09:14:12;100983.63;;;8.35;60.10
10720;BME280;5411;58.386;15.560;2023-10-08T09:16:44;100986.56;;;8.48;61.17
10720;BME280;5411;58.386;15.560;2023-10-08T09:19:16;100977.84;;;8.54;60.04
10720;BME280;5411;58.386;15.560;2023-10-08T09:21:59;100983.16;;;8.62;58.70
10720;BME280;5411;58.386;15.560;2023-10-08T09:24:32;100989.16;;;8.64;58.47
10720;BME280;5411;58.386;15.560;2023-10-08T09:27:04;100998.16;;;8.63;57.23
10720;BME280;5411;58.386;15.560;2023-10-08T09:29:33;101017.84;;;8.62;57.56
10720;BME280;5411;58.386;15.560;2023-10-08T09:32:12;100996.94;;;8.66;58.19
10720;BME280;5411;58.386;15.560;2023-10-08T09:34:55;101008.13;;;8.69;59.08
10720;BME280;5411;58.386;15.560;2023-10-08T09:37:30;101014.59;;;8.75;58.36
10720;BME280;5411;58.386;15.560;2023-10-08T09:40:03;101022.56;;;8.83;58.01
10720;BME280;5411;58.386;15.560;2023-10-08T09:42:42;101023.22;;;8.85;57.12
10720;BME280;5411;58.386;15.560;2023-10-08T09:45:12;101014.53;;;8.83;57.96
10720;BME280;5411;58.386;15.560;2023-10-08T09:47:49;101012.03;;;8.81;57.58
10720;BME280;5411;58.386;15.560;2023-10-08T09:50:26;101002.88;;;8.84;57.92
10720;BME280;5411;58.386;15.560;2023-10-08T09:53:01;101007.84;;;8.87;56.92
10720;BME280;5411;58.386;15.560;2023-10-08T09:55:43;101016.97;;;8.92;57.44
10720;BME280;5411;58.386;15.560;2023-10-08T09:58:13;101017.19;;;8.91;56.85
10720;BME280;5411;58.386;15.560;2023-10-08T10:00:44;101026.13;;;8.98;58.53
10720;BME280;5411;58.386;15.560;2023-10-08T10:03:17;101028.13;;;9.04;57.69
10720;BME280;5411;58.386;15.560;2023-10-08T10:09:21;101018.88;;;9.15;58.61
10720;BME280;5411;58.386;15.560;2023-10-08T10:11:52;101019.81;;;9.22;57.67
10720;BME280;5411;58.386;15.560;2023-10-08T10:14:23;101023.97;;;9.24;55.90
10720;BME280;5411;58.386;15.560;2023-10-08T10:17:09;101031.78;;;9.26;57.59
10720;BME280;5411;58.386;15.560;2023-10-08T10:19:56;101033.63;;;9.25;56.48
10720;BME280;5411;58.386;15.560;2023-10-08T10:22:28;101029.63;;;9.29;57.63
10720;BME280;5411;58.386;15.560;2023-10-08T10:24:57;101021.53;;;9.38;57.88
10720;BME280;5411;58.386;15.560;2023-10-08T10:27:27;101028.19;;;9.42;56.65
10720;BME280;5411;58.386;15.560;2023-10-08T10:30:02;101035.63;;;9.46;56.29
10720;BME280;5411;58.386;15.560;2023-10-08T10:32:35;101036.47;;;9.47;56.64
10720;BME280;5411;58.386;15.560;2023-10-08T10:35:07;101032.09;;;9.54;56.68
10720;BME280;5411;58.386;15.560;2023-10-08T10:37:39;101043.47;;;9.48;55.82
10720;BME280;5411;58.386;15.560;2023-10-08T10:40:22;101029.94;;;9.49;56.25
10720;BME280;5411;58.386;15.560;2023-10-08T10:42:58;101048.94;;;9.54;56.22
10720;BME280;5411;58.386;15.560;2023-10-08T10:45:31;101040.75;;;9.56;55.83
10720;BME280;5411;58.386;15.560;2023-10-08T10:48:07;101035.78;;;9.53;55.77
10720;BME280;5411;58.386;15.560;2023-10-08T10:50:56;101053.72;;;9.59;56.11
10720;BME280;5411;58.386;15.560;2023-10-08T10:53:40;101051.06;;;9.59;55.52
10720;BME280;5411;58.386;15.560;2023-10-08T10:56:12;101048.53;;;9.65;55.75
10720;BME280;5411;58.386;15.560;2023-10-08T10:58:47;101052.25;;;9.79;56.91
10720;BME280;5411;58.386;15.560;2023-10-08T11:01:26;101045.72;;;9.82;56.20
10720;BME280;5411;58.386;15.560;2023-10-08T11:04:11;101061.00;;;9.88;56.03
10720;BME280;5411;58.386;15.560;2023-10-08T11:06:46;101053.25;;;9.78;56.37
10720;BME280;5411;58.386;15.560;2023-10-08T11:09:17;101047.59;;;9.73;55.50
10720;BME280;5411;58.386;15.560;2023-10-08T11:12:03;101044.19;;;9.64;55.31
10720;BME280;5411;58.386;15.560;2023-10-08T11:14:39;101043.19;;;9.65;55.81
10720;BME280;5411;58.386;15.560;2023-10-08T11:17:13;101048.63;;;9.72;56.00
10720;BME280;5411;58.386;15.560;2023-10-08T11:19:43;101048.25;;;9.75;55.62
10720;BME280;5411;58.386;15.560;2023-10-08T11:22:15;101050.22;;;9.81;56.52
10720;BME280;5411;58.386;15.560;2023-10-08T11:24:53;101050.22;;;9.81;55.94
10720;BME280;5411;58.386;15.560;2023-10-08T11:27:25;101056.41;;;9.82;55.07
10720;BME280;5411;58.386;15.560;2023-10-08T11:30:04;101048.91;;;9.77;54.95
10720;BME280;5411;58.386;15.560;2023-10-08T11:32:41;101057.25;;;9.82;56.31
10720;BME280;5411;58.386;15.560;2023-10-08T11:35:19;101056.06;;;9.85;54.81
10720;BME280;5411;58.386;15.560;2023-10-08T11:37:51;101047.81;;;9.86;56.39
10720;BME280;5411;58.386;15.560;2023-10-08T11:40:25;101054.13;;;9.93;57.02
10720;BME280;5411;58.386;15.560;2023-10-08T11:42:57;101065.72;;;10.00;56.11
10720;BME280;5411;58.386;15.560;2023-10-08T11:45:30;101074.75;;;9.99;55.89
10720;BME280;5411;58.386;15.560;2023-10-08T11:48:06;101070.16;;;9.93;57.16
10720;BME280;5411;58.386;15.560;2023-10-08T11:50:39;101085.47;;;9.99;57.74
10720;BME280;5411;58.386;15.560;2023-10-08T11:53:10;101089.44;;;10.04;56.79
10720;BME280;5411;58.386;15.560;2023-10-08T11:55:39;101091.09;;;10.05;54.94
10720;BME280;5411;58.386;15.560;2023-10-08T11:58:12;101093.47;;;9.99;55.34
10720;BME280;5411;58.386;15.560;2023-10-08T12:00:45;101082.44;;;10.02;55.32
10720;BME280;5411;58.386;15.560;2023-10-08T12:03:19;101076.91;;;10.04;56.36
10720;BME280;5411;58.386;15.560;2023-10-08T12:05:52;101081.59;;;10.02;55.66
10720;BME280;5411;58.386;15.560;2023-10-08T12:08:33;101078.75;;;10.04;56.29
10720;BME280;5411;58.386;15.560;2023-10-08T12:11:07;101077.38;;;10.08;56.58
10720;BME280;5411;58.386;15.560;2023-10-08T12:13:39;101081.63;;;10.17;57.22
10720;BME280;5411;58.386;15.560;2023-10-08T12:16:12;101087.81;;;10.17;55.17
10720;BME280;5411;58.386;15.560;2023-10-08T12:18:48;101083.63;;;10.23;56.50
10720;BME280;5411;58.386;15.560;2023-10-08T12:21:24;101086.47;;;10.21;55.96
10720;BME280;5411;58.386;15.560;2023-10-08T12:23:59;101095.59;;;10.27;54.37
10720;BME280;5411;58.386;15.560;2023-10-08T12:26:32;101096.41;;;10.27;55.09
10720;BME280;5411;58.386;15.560;2023-10-08T12:29:01;101091.47;;;10.24;54.89
10720;BME280;5411;58.386;15.560;2023-10-08T12:31:30;101087.31;;;10.22;55.71
10720;BME280;5411;58.386;15.560;2023-10-08T12:34:00;101094.75;;;10.26;55.74
10720;BME280;5411;58.386;15.560;2023-10-08T12:36:34;101088.78;;;10.24;54.58
10720;BME280;5411;58.386;15.560;2023-10-08T12:39:05;101088.41;;;10.27;55.60
10720;BME280;5411;58.386;15.560;2023-10-08T12:41:42;101086.66;;;10.34;54.89
10720;BME280;5411;58.386;15.560;2023-10-08T12:44:12;101076.63;;;10.37;55.00
10720;BME280;5411;58.386;15.560;2023-10-08T12:46:45;101067.94;;;10.34;55.62
10720;BME280;5411;58.386;15.560;2023-10-08T12:49:18;101088.97;;;10.38;56.59
10720;BME280;5411;58.386;15.560;2023-10-08T12:51:49;101071.28;;;10.37;55.46
10720;BME280;5411;58.386;15.560;2023-10-08T12:54:27;101068.47;;;10.30;55.14
10720;BME280;5411;58.386;15.560;2023-10-08T12:57:00;101063.88;;;10.24;55.29
10720;BME280;5411;58.386;15.560;2023-10-08T12:59:33;101063.41;;;10.20;56.49
10720;BME280;5411;58.386;15.560;2023-10-08T13:02:13;101069.69;;;10.27;56.36
10720;BME280;5411;58.386;15.560;2023-10-08T13:05:01;101079.00;;;10.31;57.80
10720;BME280;5411;58.386;15.560;2023-10-08T13:07:36;101073.09;;;10.21;55.71
10720;BME280;5411;58.386;15.560;2023-10-08T13:10:17;101080.13;;;10.22;56.44
10720;BME280;5411;58.386;15.560;2023-10-08T13:12:47;101082.63;;;10.16;56.24
10720;BME280;5411;58.386;15.560;2023-10-08T13:15:19;101084.31;;;10.17;56.15
10720;BME280;5411;58.386;15.560;2023-10-08T13:17:53;101094.34;;;10.15;56.47
10720;BME280;5411;58.386;15.560;2023-10-08T13:20:22;101094.34;;;10.15;56.28
10720;BME280;5411;58.386;15.560;2023-10-08T13:23:03;101083.00;;;10.13;57.06
10720;BME280;5411;58.386;15.560;2023-10-08T13:25:37;101084.84;;;10.12;57.46
10720;BME280;5411;58.386;15.560;2023-10-08T13:28:11;101086.50;;;10.13;57.98
10720;BME280;5411;58.386;15.560;2023-10-08T13:30:41;101081.16;;;10.13;58.41
10720;BME280;5411;58.386;15.560;2023-10-08T13:33:27;101095.81;;;10.17;56.89
10720;BME280;5411;58.386;15.560;2023-10-08T13:36:17;101085.22;;;10.09;55.92
10720;BME280;5411;58.386;15.560;2023-10-08T13:38:59;101085.41;;;10.08;56.99
10720;BME280;5411;58.386;15.560;2023-10-08T13:41:40;101082.72;;;10.08;57.20
10720;BME280;5411;58.386;15.560;2023-10-08T13:44:20;101084.03;;;10.12;56.30